createdAt,value
2017-12-12T00:02:19.756Z,3.70
2017-12-12T00:04:46.830Z,3.88
2017-12-12T00:07:13.872Z,3.70
2017-12-12T00:09:41.415Z,3.68
2017-12-12T00:12:08.974Z,3.71
2017-12-12T00:14:35.715Z,3.77
2017-12-12T00:17:02.467Z,3.76
2017-12-12T00:19:29.233Z,3.78
2017-12-12T00:21:56.040Z,3.42
2017-12-12T00:24:22.839Z,3.92
2017-12-12T00:26:49.644Z,2.97
2017-12-12T00:29:16.468Z,3.62
2017-12-12T00:31:44.153Z,2.66
2017-12-12T00:34:10.946Z,3.05
2017-12-12T00:36:37.677Z,2.75
2017-12-12T00:39:04.482Z,3.25
2017-12-12T00:41:31.475Z,3.08
2017-12-12T00:43:58.265Z,3.24
2017-12-12T00:46:25.037Z,2.55
2017-12-12T00:48:51.796Z,3.27
2017-12-12T00:51:18.559Z,3.38
2017-12-12T00:53:45.326Z,3.18
2017-12-12T00:56:12.089Z,2.41
2017-12-12T00:58:38.860Z,2.65
2017-12-12T01:01:06.404Z,2.81
2017-12-12T01:03:33.189Z,2.92
2017-12-12T01:05:59.957Z,2.49
2017-12-12T01:08:26.752Z,2.85
2017-12-12T01:10:53.556Z,2.49
2017-12-12T01:13:20.340Z,2.61
2017-12-12T01:15:47.131Z,2.30
2017-12-12T01:18:13.895Z,2.24
2017-12-12T01:20:40.672Z,2.43
2017-12-12T01:23:07.465Z,2.28
2017-12-12T01:25:34.271Z,2.51
2017-12-12T01:28:01.076Z,2.14
2017-12-12T01:30:27.891Z,2.14
2017-12-12T01:32:54.722Z,2.81
2017-12-12T01:35:21.540Z,2.36
2017-12-12T01:37:48.346Z,2.80
2017-12-12T01:40:15.182Z,2.94
2017-12-12T01:42:42.101Z,2.71
2017-12-12T01:45:08.992Z,2.97
2017-12-12T01:47:35.858Z,3.04
2017-12-12T01:50:02.696Z,2.31
2017-12-12T01:52:29.583Z,2.16
2017-12-12T01:54:56.461Z,2.80
2017-12-12T01:57:23.381Z,2.80
2017-12-12T01:59:50.991Z,2.70
2017-12-12T02:02:17.917Z,2.26
2017-12-12T02:38:35.687Z,2.56
2017-12-12T02:41:02.551Z,2.05
2017-12-12T02:43:29.403Z,2.52
2017-12-12T02:45:56.285Z,2.10
2017-12-12T02:48:23.155Z,2.71
2017-12-12T02:50:50.002Z,2.45
2017-12-12T02:53:16.900Z,2.69
2017-12-12T02:55:43.760Z,2.62
2017-12-12T02:58:10.612Z,2.45
2017-12-12T03:00:37.442Z,2.81
2017-12-12T03:03:05.074Z,2.42
2017-12-12T03:05:32.666Z,2.50
2017-12-12T03:07:59.520Z,2.37
2017-12-12T03:10:27.119Z,2.32
2017-12-12T03:12:53.967Z,2.46
2017-12-12T03:15:20.814Z,2.60
2017-12-12T03:17:48.404Z,2.72
2017-12-12T03:20:15.280Z,2.71
2017-12-12T03:22:42.123Z,2.56
2017-12-12T03:25:09.749Z,2.55
2017-12-12T03:27:36.585Z,2.46
2017-12-12T03:30:03.452Z,2.37
2017-12-12T03:32:31.064Z,2.56
2017-12-12T03:34:58.717Z,2.52
2017-12-12T03:37:25.625Z,2.63
2017-12-12T03:39:52.505Z,2.65
2017-12-12T03:42:20.100Z,2.51
2017-12-12T03:44:46.913Z,2.58
2017-12-12T03:47:13.761Z,2.36
2017-12-12T03:49:40.578Z,2.66
2017-12-12T03:52:07.413Z,2.32
2017-12-12T03:54:34.260Z,2.58
2017-12-12T03:57:01.099Z,2.38
2017-12-12T03:59:27.971Z,2.51
2017-12-12T04:01:54.867Z,2.58
2017-12-12T04:04:22.474Z,2.63
2017-12-12T04:06:49.338Z,2.47
2017-12-12T04:09:16.187Z,2.52
2017-12-12T04:11:42.995Z,2.49
2017-12-12T04:14:09.869Z,2.73
2017-12-12T04:16:36.744Z,2.61
2017-12-12T04:19:03.647Z,2.41
2017-12-12T04:21:30.510Z,2.50
2017-12-12T04:23:57.372Z,2.22
2017-12-12T04:26:24.243Z,2.33
2017-12-12T04:28:51.077Z,2.39
2017-12-12T04:31:17.926Z,2.52
2017-12-12T04:33:44.800Z,2.60
2017-12-12T04:36:11.619Z,2.57
2017-12-12T04:38:38.444Z,2.52
2017-12-12T04:41:05.289Z,2.37
2017-12-12T04:43:32.116Z,2.49
2017-12-12T04:45:58.970Z,2.70
2017-12-12T04:48:25.815Z,2.54
2017-12-12T04:50:52.680Z,2.63
2017-12-12T04:53:19.541Z,2.40
2017-12-12T04:55:46.373Z,2.68
2017-12-12T04:58:13.224Z,2.64
2017-12-12T05:00:40.096Z,2.65
2017-12-12T05:03:06.977Z,2.64
2017-12-12T05:05:33.824Z,2.78
2017-12-12T05:08:00.698Z,2.35
2017-12-12T05:10:27.509Z,2.68
2017-12-12T05:12:55.156Z,2.74
2017-12-12T05:15:21.982Z,2.61
2017-12-12T05:17:49.584Z,2.58
2017-12-12T05:20:16.429Z,2.69
2017-12-12T05:22:43.255Z,2.72
2017-12-12T05:25:10.120Z,2.64
2017-12-12T05:27:36.976Z,2.65
2017-12-12T05:30:03.840Z,2.55
2017-12-12T05:32:30.688Z,2.46
2017-12-12T05:34:58.348Z,2.61
2017-12-12T05:37:25.209Z,2.72
2017-12-12T05:39:52.053Z,2.70
2017-12-12T05:42:18.897Z,2.70
2017-12-12T05:44:45.764Z,2.70
2017-12-12T05:47:12.605Z,2.65
2017-12-12T05:49:39.442Z,2.70
2017-12-12T05:52:07.010Z,2.62
2017-12-12T05:54:34.602Z,2.68
2017-12-12T05:57:01.437Z,2.45
2017-12-12T05:59:28.282Z,2.79
2017-12-12T06:01:55.130Z,2.65
2017-12-12T06:04:22.003Z,2.65
2017-12-12T06:06:48.855Z,2.67
2017-12-12T06:09:15.691Z,2.51
2017-12-12T06:11:42.539Z,2.67
2017-12-12T06:14:09.410Z,2.71
2017-12-12T06:16:36.276Z,2.61
2017-12-12T06:19:03.118Z,2.72
2017-12-12T06:21:29.959Z,2.56
2017-12-12T06:23:57.560Z,2.75
2017-12-12T06:26:24.409Z,2.48
2017-12-12T06:28:51.998Z,2.71
2017-12-12T06:31:18.852Z,2.68
2017-12-12T06:33:45.710Z,2.57
2017-12-12T06:36:13.294Z,2.74
2017-12-12T06:38:40.132Z,2.62
2017-12-12T06:41:07.001Z,2.72
2017-12-12T06:43:34.629Z,2.52
2017-12-12T06:46:01.458Z,2.69
2017-12-12T06:48:28.341Z,2.70
2017-12-12T06:50:55.200Z,2.71
2017-12-12T06:53:22.062Z,2.54
2017-12-12T06:55:48.905Z,2.70
2017-12-12T06:58:15.729Z,2.56
2017-12-12T07:00:42.678Z,2.65
2017-12-12T07:03:09.529Z,2.77
2017-12-12T07:05:36.379Z,2.78
2017-12-12T07:08:03.233Z,2.61
2017-12-12T07:10:30.115Z,2.74
2017-12-12T07:12:56.994Z,2.68
2017-12-12T07:15:23.844Z,2.77
2017-12-12T07:17:50.692Z,2.65
2017-12-12T07:20:17.557Z,2.72
2017-12-12T07:22:44.384Z,2.66
2017-12-12T07:25:11.237Z,2.69
2017-12-12T07:27:38.105Z,2.79
2017-12-12T07:30:04.875Z,2.77
2017-12-12T07:32:31.638Z,2.82
2017-12-12T07:34:58.407Z,2.81
2017-12-12T07:37:25.215Z,2.81
2017-12-12T07:39:52.743Z,2.88
2017-12-12T07:42:19.557Z,2.78
2017-12-12T07:44:47.114Z,2.87
2017-12-12T07:47:13.973Z,2.92
2017-12-12T07:49:40.756Z,2.80
2017-12-12T07:52:08.316Z,2.89
2017-12-12T07:54:35.113Z,2.76
2017-12-12T07:57:01.929Z,2.73
2017-12-12T07:59:28.746Z,2.90
2017-12-12T08:01:55.591Z,2.89
2017-12-12T08:04:23.110Z,2.84
2017-12-12T08:06:49.955Z,2.84
2017-12-12T08:09:16.753Z,2.77
2017-12-12T08:11:43.535Z,2.96
2017-12-12T08:14:11.126Z,2.88
2017-12-12T08:16:38.685Z,2.93
2017-12-12T08:19:06.211Z,2.95
2017-12-12T08:21:33.002Z,2.82
2017-12-12T08:23:59.842Z,3.01
2017-12-12T08:26:26.605Z,2.90
2017-12-12T08:28:53.342Z,2.87
2017-12-12T08:31:20.138Z,2.99
2017-12-12T08:33:46.964Z,2.88
2017-12-12T08:36:13.791Z,2.95
2017-12-12T08:38:41.322Z,3.09
2017-12-12T08:41:08.083Z,3.05
2017-12-12T08:43:34.899Z,3.02
2017-12-12T08:46:01.725Z,3.06
2017-12-12T08:48:28.531Z,3.04
2017-12-12T08:50:55.339Z,3.01
2017-12-12T08:53:22.142Z,3.00
2017-12-12T08:55:48.934Z,3.08
2017-12-12T08:58:15.750Z,2.99
2017-12-12T09:00:43.300Z,2.96
2017-12-12T09:03:10.148Z,3.10
2017-12-12T09:05:36.985Z,3.06
2017-12-12T09:08:03.843Z,3.02
2017-12-12T09:10:30.649Z,3.15
2017-12-12T09:12:57.452Z,3.13
2017-12-12T09:15:24.272Z,3.21
2017-12-12T09:17:51.112Z,3.22
2017-12-12T09:20:17.931Z,3.23
2017-12-12T09:22:44.716Z,3.23
2017-12-12T09:25:11.536Z,3.18
2017-12-12T09:27:39.077Z,3.25
2017-12-12T09:30:05.907Z,3.16
2017-12-12T09:32:32.688Z,3.17
2017-12-12T09:34:59.526Z,3.25
2017-12-12T09:37:26.318Z,3.22
2017-12-12T09:39:53.139Z,3.19
2017-12-12T09:42:20.038Z,3.17
2017-12-12T09:44:46.833Z,3.18
2017-12-12T09:47:14.362Z,3.18
2017-12-12T09:49:41.184Z,3.08
2017-12-12T09:52:08.754Z,3.25
2017-12-12T09:54:35.563Z,3.22
2017-12-12T09:57:02.359Z,3.29
2017-12-12T09:59:29.151Z,3.28
2017-12-12T10:01:56.844Z,3.29
2017-12-12T10:04:23.728Z,3.33
2017-12-12T10:06:50.514Z,3.35
2017-12-12T10:09:17.310Z,3.29
2017-12-12T10:11:44.094Z,3.33
2017-12-12T10:14:10.971Z,3.35
2017-12-12T10:16:37.794Z,3.37
2017-12-12T10:19:04.622Z,3.32
2017-12-12T10:21:32.206Z,3.25
2017-12-12T10:23:58.990Z,3.37
2017-12-12T10:26:25.793Z,3.25
2017-12-12T10:28:52.606Z,3.39
2017-12-12T10:31:20.187Z,3.45
2017-12-12T10:33:46.998Z,3.45
2017-12-12T10:36:13.858Z,3.36
2017-12-12T10:38:40.705Z,3.32
2017-12-12T10:41:07.605Z,3.31
2017-12-12T10:43:34.418Z,3.35
2017-12-12T10:46:01.328Z,3.23
2017-12-12T10:48:28.159Z,3.27
2017-12-12T10:50:54.992Z,3.37
2017-12-12T10:53:21.830Z,3.39
2017-12-12T10:55:49.362Z,3.33
2017-12-12T10:58:16.211Z,3.41
2017-12-12T11:00:43.027Z,3.45
2017-12-12T11:03:10.590Z,3.47
2017-12-12T11:05:37.397Z,3.29
2017-12-12T11:08:04.174Z,3.27
2017-12-12T11:10:30.963Z,3.43
2017-12-12T11:12:57.758Z,3.49
2017-12-12T11:15:24.569Z,3.36
2017-12-12T11:17:52.092Z,3.41
2017-12-12T11:20:19.612Z,3.39
2017-12-12T11:22:46.455Z,3.37
2017-12-12T11:25:13.255Z,3.36
2017-12-12T11:27:41.638Z,3.43
2017-12-12T11:30:09.286Z,3.33
2017-12-12T11:32:36.249Z,3.38
2017-12-12T11:35:03.139Z,3.45
2017-12-12T11:37:31.108Z,3.48
2017-12-12T11:39:58.248Z,3.33
2017-12-12T11:42:25.046Z,3.47
2017-12-12T11:44:51.845Z,3.38
2017-12-12T11:47:18.697Z,3.46
2017-12-12T11:49:45.531Z,3.50
2017-12-12T11:52:12.360Z,3.50
2017-12-12T11:54:39.342Z,3.58
2017-12-12T11:57:06.253Z,3.57
2017-12-12T11:59:33.140Z,3.49
2017-12-12T12:01:59.977Z,3.56
2017-12-12T12:04:26.860Z,3.56
2017-12-12T12:06:54.464Z,3.48
2017-12-12T12:09:21.311Z,3.56
2017-12-12T12:11:48.240Z,3.62
2017-12-12T12:14:15.109Z,3.63
2017-12-12T12:16:41.933Z,3.61
2017-12-12T12:19:08.831Z,3.62
2017-12-12T12:21:35.699Z,3.57
2017-12-12T12:24:03.307Z,3.70
2017-12-12T12:26:30.180Z,3.76
2017-12-12T12:28:57.076Z,3.77
2017-12-12T12:31:23.935Z,3.76
2017-12-12T12:33:50.800Z,3.71
2017-12-12T12:36:17.702Z,3.78
2017-12-12T12:38:44.500Z,3.76
2017-12-12T12:41:11.386Z,3.64
2017-12-12T12:43:38.223Z,3.63
2017-12-12T12:46:05.147Z,3.67
2017-12-12T12:48:32.790Z,3.65
2017-12-12T12:50:59.712Z,3.66
2017-12-12T12:53:26.604Z,3.74
2017-12-12T12:55:54.063Z,3.56
2017-12-12T12:58:20.962Z,3.74
2017-12-12T13:00:47.892Z,3.66
2017-12-12T13:03:14.760Z,3.72
2017-12-12T13:05:42.034Z,3.81
2017-12-12T13:08:09.445Z,3.84
2017-12-12T13:10:36.395Z,3.86
2017-12-12T13:13:03.653Z,3.86
2017-12-12T13:15:30.532Z,3.91
2017-12-12T13:17:58.073Z,3.91
2017-12-12T13:20:25.198Z,3.89
2017-12-12T13:22:52.802Z,3.83
2017-12-12T13:25:19.696Z,3.86
2017-12-12T13:27:46.577Z,3.80
2017-12-12T13:30:13.694Z,3.80
2017-12-12T13:32:40.493Z,3.85
2017-12-12T13:35:07.385Z,3.73
2017-12-12T13:37:34.285Z,3.81
2017-12-12T13:40:01.124Z,3.75
2017-12-12T13:42:28.009Z,3.73
2017-12-12T13:44:55.289Z,3.76
2017-12-12T13:47:22.200Z,3.76
2017-12-12T13:49:49.142Z,3.73
2017-12-12T13:52:16.030Z,3.71
2017-12-12T13:54:42.906Z,3.76
2017-12-12T13:57:10.220Z,3.71
2017-12-12T13:59:36.990Z,3.61
2017-12-12T14:02:03.841Z,3.60
2017-12-12T14:04:30.663Z,3.55
2017-12-12T14:06:57.460Z,3.57
2017-12-12T14:09:24.272Z,3.60
2017-12-12T14:11:51.112Z,3.57
2017-12-12T14:14:17.866Z,3.64
2017-12-12T14:16:44.716Z,3.53
2017-12-12T14:19:11.730Z,3.58
2017-12-12T14:21:38.709Z,3.57
2017-12-12T14:24:05.863Z,3.67
2017-12-12T14:26:33.307Z,3.67
2017-12-12T14:29:06.309Z,3.73
2017-12-12T14:31:34.020Z,3.65
2017-12-12T14:34:01.781Z,3.66
2017-12-12T14:36:34.205Z,3.64
2017-12-12T14:39:01.160Z,3.60
2017-12-12T14:41:29.043Z,3.71
2017-12-12T14:44:01.486Z,3.69
2017-12-12T14:46:28.430Z,3.63
2017-12-12T14:48:55.557Z,3.59
2017-12-12T14:51:22.365Z,3.68
2017-12-12T14:53:49.298Z,3.65
2017-12-12T14:56:21.948Z,3.68
2017-12-12T14:58:50.793Z,3.77
2017-12-12T15:01:23.221Z,4.15
2017-12-12T15:03:49.996Z,3.76
2017-12-12T15:06:22.142Z,4.19
2017-12-12T15:08:49.117Z,4.40
2017-12-12T15:11:16.514Z,3.99
2017-12-12T15:13:49.400Z,4.08
2017-12-12T15:16:17.038Z,4.59
2017-12-12T15:18:44.879Z,4.27
2017-12-12T15:21:11.860Z,4.27
2017-12-12T15:23:39.633Z,4.72
2017-12-12T15:26:06.564Z,4.19
2017-12-12T15:28:35.152Z,4.08
2017-12-12T15:31:07.347Z,4.33
2017-12-12T15:33:34.439Z,4.46
2017-12-12T15:36:01.582Z,3.78
2017-12-12T15:38:28.738Z,4.43
2017-12-12T15:40:56.057Z,4.57
2017-12-12T15:43:23.252Z,4.31
2017-12-12T15:45:52.215Z,4.70
2017-12-12T15:48:23.081Z,4.70
2017-12-12T15:50:50.765Z,4.52
2017-12-12T15:53:18.977Z,4.27
2017-12-12T15:55:45.921Z,3.86
2017-12-12T15:58:14.248Z,4.17
2017-12-12T16:00:46.303Z,4.05
2017-12-12T16:03:18.738Z,3.75
2017-12-12T16:05:45.987Z,4.13
2017-12-12T16:08:12.823Z,4.55
2017-12-12T16:10:43.465Z,4.41
2017-12-12T16:13:11.254Z,4.39
2017-12-12T16:15:38.088Z,4.41
2017-12-12T16:18:05.489Z,4.26
2017-12-12T16:20:33.813Z,4.51
2017-12-12T16:23:01.233Z,4.46
2017-12-12T16:25:31.449Z,4.21
2017-12-12T16:27:58.260Z,4.37
2017-12-12T16:30:26.106Z,4.31
2017-12-12T16:32:52.966Z,4.20
2017-12-12T16:35:19.953Z,3.78
2017-12-12T16:37:49.948Z,4.14
2017-12-12T16:40:17.329Z,4.48
2017-12-12T16:42:44.742Z,4.52
2017-12-12T16:45:11.889Z,4.14
2017-12-12T16:47:38.806Z,4.38
2017-12-12T16:50:05.706Z,4.50
2017-12-12T16:52:32.631Z,4.11
2017-12-12T16:55:00.445Z,4.33
2017-12-12T16:57:28.531Z,4.52
2017-12-12T16:59:55.655Z,4.29
2017-12-12T17:02:22.684Z,4.53
2017-12-12T17:04:49.602Z,4.45
2017-12-12T17:07:16.533Z,3.97
2017-12-12T17:09:44.313Z,4.35
2017-12-12T17:12:12.031Z,4.43
2017-12-12T17:14:38.840Z,4.21
2017-12-12T17:17:12.006Z,4.39
2017-12-12T17:19:40.267Z,4.28
2017-12-12T17:22:07.737Z,3.92
2017-12-12T17:24:37.184Z,4.17
2017-12-12T17:27:10.306Z,3.60
2017-12-12T17:29:38.635Z,3.99
2017-12-12T17:32:06.389Z,4.09
2017-12-12T17:34:33.594Z,4.36
2017-12-12T17:37:03.849Z,3.99
2017-12-12T17:39:30.773Z,4.33
2017-12-12T17:42:03.406Z,3.79
2017-12-12T17:44:38.371Z,4.26
2017-12-12T17:47:05.281Z,4.23
2017-12-12T17:49:32.058Z,4.29
2017-12-12T17:51:58.915Z,4.34
2017-12-12T17:54:26.255Z,3.99
2017-12-12T17:56:53.088Z,4.08
2017-12-12T17:59:20.670Z,3.99
2017-12-12T18:01:48.156Z,4.06
2017-12-12T18:04:14.974Z,3.72
2017-12-12T18:06:41.744Z,4.07
2017-12-12T18:09:08.829Z,3.94
2017-12-12T18:11:36.357Z,3.90
2017-12-12T18:14:03.297Z,3.77
2017-12-12T18:16:30.902Z,3.64
2017-12-12T18:18:58.552Z,3.67
2017-12-12T18:21:25.610Z,3.91
2017-12-12T18:23:52.448Z,3.84
2017-12-12T18:26:21.255Z,3.90
2017-12-12T18:28:49.522Z,3.53
2017-12-12T18:31:18.274Z,4.00
2017-12-12T18:33:47.805Z,3.86
2017-12-12T18:36:14.747Z,3.91
2017-12-12T18:38:42.135Z,3.72
2017-12-12T18:41:09.069Z,4.03
2017-12-12T18:43:36.010Z,4.03
2017-12-12T18:46:02.823Z,4.01
2017-12-12T18:48:31.289Z,3.77
2017-12-12T18:50:58.503Z,3.70
2017-12-12T18:53:25.474Z,3.98
2017-12-12T18:55:54.163Z,3.91
2017-12-12T18:58:21.462Z,3.92
2017-12-12T19:00:50.476Z,3.81
2017-12-12T19:03:17.398Z,3.94
2017-12-12T19:05:44.918Z,3.78
2017-12-12T19:08:12.131Z,3.75
2017-12-12T19:10:41.550Z,3.90
2017-12-12T19:13:09.725Z,3.95
2017-12-12T19:15:38.406Z,3.98
2017-12-12T19:18:07.628Z,4.07
2017-12-12T19:20:36.864Z,3.83
2017-12-12T19:23:05.442Z,4.02
2017-12-12T19:25:33.978Z,3.66
2017-12-12T19:28:02.848Z,4.01
2017-12-12T19:30:31.728Z,4.12
2017-12-12T19:33:00.610Z,4.10
2017-12-12T19:35:29.556Z,4.10
2017-12-12T19:37:58.148Z,4.16
2017-12-12T19:40:26.959Z,3.98
2017-12-12T19:42:55.680Z,3.79
2017-12-12T19:45:24.637Z,4.05
2017-12-12T19:47:53.723Z,3.90
2017-12-12T19:50:22.695Z,4.02
2017-12-12T19:52:52.350Z,3.73
2017-12-12T19:55:21.357Z,4.02
2017-12-12T19:57:50.321Z,3.71
2017-12-12T20:00:20.018Z,3.96
2017-12-12T20:02:48.970Z,3.94
2017-12-12T20:05:18.085Z,3.94
2017-12-12T20:07:46.952Z,3.99
2017-12-12T20:10:15.974Z,4.06
2017-12-12T20:12:44.928Z,3.99
2017-12-12T20:15:14.001Z,3.86
2017-12-12T20:17:43.005Z,3.83
2017-12-12T20:20:13.091Z,4.02
2017-12-12T20:22:42.051Z,4.06
2017-12-12T20:25:10.986Z,3.98
2017-12-12T20:27:40.650Z,3.92
2017-12-12T20:30:09.520Z,3.75
2017-12-12T20:32:38.041Z,3.98
2017-12-12T20:35:06.750Z,3.74
2017-12-12T20:37:37.249Z,3.98
2017-12-12T20:40:06.844Z,3.85
2017-12-12T20:42:35.586Z,3.81
2017-12-12T20:45:05.309Z,3.64
2017-12-12T20:47:34.834Z,3.51
2017-12-12T20:50:04.327Z,3.80
2017-12-12T20:52:33.217Z,3.84
2017-12-12T20:55:02.028Z,3.87
2017-12-12T20:57:30.778Z,3.83
2017-12-12T21:00:00.447Z,3.63
2017-12-12T21:02:29.152Z,3.74
2017-12-12T21:04:58.052Z,3.63
2017-12-12T21:07:32.566Z,3.71
2017-12-12T21:10:01.348Z,3.77
2017-12-12T21:12:31.039Z,3.86
2017-12-12T21:15:00.047Z,3.89
2017-12-12T21:17:28.672Z,3.63
2017-12-12T21:19:55.914Z,3.71
2017-12-12T21:22:24.084Z,3.73
2017-12-12T21:24:51.286Z,3.67
2017-12-12T21:27:18.093Z,3.65
2017-12-12T21:29:44.876Z,3.78
2017-12-12T21:32:12.267Z,3.77
2017-12-12T21:34:39.032Z,3.66
2017-12-12T21:37:06.583Z,3.76
2017-12-12T21:39:33.441Z,3.73
2017-12-12T21:42:00.285Z,3.80
2017-12-12T21:44:27.113Z,3.81
2017-12-12T21:46:53.857Z,3.75
2017-12-12T21:49:20.636Z,3.47
2017-12-12T21:51:48.246Z,3.69
2017-12-12T21:54:15.035Z,3.75
2017-12-12T21:56:42.064Z,3.73
2017-12-12T21:59:08.909Z,3.45
2017-12-12T22:01:36.502Z,3.63
2017-12-12T22:04:04.399Z,3.48
2017-12-12T22:06:31.311Z,3.58
2017-12-12T22:08:58.315Z,3.48
2017-12-12T22:11:25.107Z,3.46
2017-12-12T22:13:51.912Z,3.43
2017-12-12T22:16:18.722Z,3.45
2017-12-12T22:18:45.622Z,3.15
2017-12-12T22:21:12.416Z,3.28
2017-12-12T22:23:39.175Z,3.39
2017-12-12T22:26:06.756Z,3.33
2017-12-12T22:28:33.519Z,3.26
2017-12-12T22:31:00.286Z,3.03
2017-12-12T22:33:27.052Z,3.20
2017-12-12T22:35:53.888Z,2.89
2017-12-12T22:38:21.433Z,3.17
2017-12-12T22:40:48.191Z,3.24
2017-12-12T22:43:14.983Z,2.90
2017-12-12T22:45:42.500Z,3.31
2017-12-12T22:48:09.287Z,3.20
2017-12-12T22:50:36.111Z,3.17
2017-12-12T22:53:02.885Z,3.19
2017-12-12T22:55:29.696Z,3.26
2017-12-12T22:57:57.265Z,3.21
2017-12-12T23:00:24.058Z,3.28
2017-12-12T23:02:50.833Z,3.26
2017-12-12T23:05:17.625Z,3.31
2017-12-12T23:07:44.399Z,3.28
2017-12-12T23:10:11.159Z,3.42
2017-12-12T23:12:37.918Z,3.32
2017-12-12T23:15:04.743Z,3.32
2017-12-12T23:17:31.698Z,3.45
2017-12-12T23:19:58.563Z,3.47
2017-12-12T23:22:25.352Z,3.47
2017-12-12T23:24:52.212Z,3.41
2017-12-12T23:27:20.506Z,3.42
2017-12-12T23:29:48.620Z,3.34
2017-12-12T23:32:16.287Z,3.41
2017-12-12T23:34:43.101Z,3.40
2017-12-12T23:37:09.874Z,3.47
2017-12-12T23:39:37.250Z,3.49
2017-12-12T23:42:04.015Z,3.51
2017-12-12T23:44:30.786Z,3.45
2017-12-12T23:46:57.555Z,3.43
2017-12-12T23:49:24.301Z,3.51
2017-12-12T23:51:51.049Z,3.49
2017-12-12T23:54:17.835Z,3.43
2017-12-12T23:56:44.708Z,3.38
2017-12-12T23:59:11.518Z,3.36
